Time,TemperatureF,DewpointF,PressureIn,WindDirection,WindDirectionDegrees,WindSpeedMPH,WindSpeedGustMPH,Humidity,HourlyPrecipIn,Conditions,Clouds,dailyrainin,SoftwareType,DateUTC
2013-10-02 00:01:00,58.7,53.6,29.96,North,0,0.0,0.0,83,0.00,,,0.00,WUHU216HW,2013-10-02 05:01:00,
2013-10-02 00:06:00,58.9,53.7,29.96,North,0,0.0,0.0,83,0.00,,,0.00,WUHU216HW,2013-10-02 05:06:00,
2013-10-02 00:11:00,58.9,53.7,29.96,North,0,0.0,0.0,83,0.00,,,0.00,WUHU216HW,2013-10-02 05:11:00,
2013-10-02 00:16:00,58.5,53.4,29.96,North,0,0.0,0.0,83,0.00,,,0.00,WUHU216HW,2013-10-02 05:16:00,
2013-10-02 00:21:00,57.8,52.3,29.96,North,0,0.0,0.0,82,0.00,,,0.00,WUHU216HW,2013-10-02 05:21:00,
2013-10-02 00:26:00,56.7,51.2,29.96,North,0,0.0,0.0,82,0.00,,,0.00,WUHU216HW,2013-10-02 05:26:00,
2013-10-02 00:31:00,56.2,50.7,29.96,North,0,0.0,0.0,82,0.00,,,0.00,WUHU216HW,2013-10-02 05:31:00,
2013-10-02 00:36:00,55.6,50.1,29.96,North,0,0.0,0.0,82,0.00,,,0.00,WUHU216HW,2013-10-02 05:36:00,
2013-10-02 00:41:00,55.1,50.0,29.96,North,0,0.0,0.0,83,0.00,,,0.00,WUHU216HW,2013-10-02 05:41:00,
2013-10-02 00:46:00,54.5,49.4,29.97,North,0,0.0,0.0,83,0.00,,,0.00,WUHU216HW,2013-10-02 05:46:00,
2013-10-02 00:51:00,54.5,50.1,29.97,North,0,0.0,0.0,85,0.00,,,0.00,WUHU216HW,2013-10-02 05:51:00,
2013-10-02 00:56:00,54.5,50.1,29.97,North,0,0.0,0.0,85,0.00,,,0.00,WUHU216HW,2013-10-02 05:56:00,
2013-10-02 01:01:00,54.4,50.0,29.97,North,0,0.0,0.0,85,0.00,,,0.00,WUHU216HW,2013-10-02 06:01:00,
2013-10-02 01:06:00,53.8,49.1,29.97,North,0,0.0,0.0,84,0.00,,,0.00,WUHU216HW,2013-10-02 06:06:00,
2013-10-02 01:11:00,53.6,49.0,29.97,North,0,0.0,0.0,84,0.00,,,0.00,WUHU216HW,2013-10-02 06:11:00,
2013-10-02 01:16:00,53.5,48.8,29.98,North,0,0.0,0.0,84,0.00,,,0.00,WUHU216HW,2013-10-02 06:16:00,
2013-10-02 01:21:00,53.5,48.8,29.98,North,0,0.0,0.0,84,0.00,,,0.00,WUHU216HW,2013-10-02 06:21:00,
2013-10-02 01:26:00,53.6,49.2,29.98,North,0,0.0,0.0,85,0.00,,,0.00,WUHU216HW,2013-10-02 06:26:00,
2013-10-02 01:31:00,54.0,49.9,29.98,North,0,0.0,0.0,86,0.00,,,0.00,WUHU216HW,2013-10-02 06:31:00,
2013-10-02 01:36:00,54.2,49.8,29.99,North,0,0.0,0.0,85,0.00,,,0.00,WUHU216HW,2013-10-02 06:36:00,
2013-10-02 01:41:00,54.4,50.0,29.99,North,0,0.0,0.0,85,0.00,,,0.00,WUHU216HW,2013-10-02 06:41:00,
2013-10-02 01:46:00,54.4,49.6,29.99,North,0,0.0,0.0,84,0.00,,,0.00,WUHU216HW,2013-10-02 06:46:00,
2013-10-02 01:51:00,54.4,49.6,29.99,North,0,0.0,0.0,84,0.00,,,0.00,WUHU216HW,2013-10-02 06:51:00,
2013-10-02 01:56:00,54.0,49.0,29.99,North,0,0.0,0.0,83,0.00,,,0.00,WUHU216HW,2013-10-02 06:56:00,
2013-10-02 02:01:00,53.3,48.2,29.99,North,0,0.0,0.0,83,0.00,,,0.00,WUHU216HW,2013-10-02 07:01:00,
2013-10-02 02:06:00,52.6,47.3,29.99,North,0,0.0,0.0,82,0.00,,,0.00,WUHU216HW,2013-10-02 07:06:00,
2013-10-02 02:11:00,52.0,47.0,29.99,North,0,0.0,0.0,83,0.00,,,0.00,WUHU216HW,2013-10-02 07:11:00,
2013-10-02 02:16:00,51.5,46.4,29.99,North,0,0.0,0.0,83,0.00,,,0.00,WUHU216HW,2013-10-02 07:16:00,
2013-10-02 02:21:00,51.1,46.1,29.99,North,0,0.0,0.0,83,0.00,,,0.00,WUHU216HW,2013-10-02 07:21:00,
2013-10-02 02:26:00,50.6,45.9,30.00,North,0,0.0,0.0,84,0.00,,,0.00,WUHU216HW,2013-10-02 07:26:00,
2013-10-02 02:31:00,50.2,45.6,30.00,North,0,0.0,0.0,84,0.00,,,0.00,WUHU216HW,2013-10-02 07:31:00,
2013-10-02 02:36:00,50.0,45.6,30.00,North,0,0.0,0.0,85,0.00,,,0.00,WUHU216HW,2013-10-02 07:36:00,
2013-10-02 02:40:00,49.7,45.3,30.00,North,0,0.0,0.0,85,0.00,,,0.00,WUHU216HW,2013-10-02 07:40:00,
2013-10-02 02:45:00,49.3,44.9,30.00,North,0,0.0,0.0,85,0.00,,,0.00,WUHU216HW,2013-10-02 07:45:00,
2013-10-02 02:50:00,49.0,44.7,30.00,North,0,0.0,0.0,85,0.00,,,0.00,WUHU216HW,2013-10-02 07:50:00,
2013-10-02 02:55:00,49.0,44.7,30.00,North,0,0.0,0.0,85,0.00,,,0.00,WUHU216HW,2013-10-02 07:55:00,
2013-10-02 03:00:00,49.0,44.7,30.00,North,0,0.0,0.0,85,0.00,,,0.00,WUHU216HW,2013-10-02 08:00:00,
2013-10-02 03:05:00,48.8,44.7,30.00,North,0,0.0,0.0,86,0.00,,,0.00,WUHU216HW,2013-10-02 08:05:00,
2013-10-02 03:10:00,48.6,44.6,30.00,North,0,0.0,0.0,86,0.00,,,0.00,WUHU216HW,2013-10-02 08:10:00,
2013-10-02 03:15:00,48.2,44.3,30.01,North,0,0.0,0.0,86,0.00,,,0.00,WUHU216HW,2013-10-02 08:15:00,
2013-10-02 03:20:00,48.1,44.1,30.01,North,0,0.0,0.0,86,0.00,,,0.00,WUHU216HW,2013-10-02 08:20:00,
2013-10-02 03:25:00,47.9,43.9,30.01,North,0,0.0,0.0,86,0.00,,,0.00,WUHU216HW,2013-10-02 08:25:00,
2013-10-02 03:30:00,48.1,44.4,30.01,North,0,0.0,0.0,87,0.00,,,0.00,WUHU216HW,2013-10-02 08:30:00,
2013-10-02 03:35:00,48.2,44.6,30.01,North,0,0.0,0.0,87,0.00,,,0.00,WUHU216HW,2013-10-02 08:35:00,
2013-10-02 03:40:00,48.1,44.4,30.01,North,0,0.0,0.0,87,0.00,,,0.00,WUHU216HW,2013-10-02 08:40:00,
2013-10-02 03:45:00,48.1,44.4,30.01,North,0,0.0,0.0,87,0.00,,,0.00,WUHU216HW,2013-10-02 08:45:00,
2013-10-02 03:50:00,48.2,44.9,30.01,North,0,0.0,0.0,88,0.00,,,0.00,WUHU216HW,2013-10-02 08:50:00,
2013-10-02 03:55:00,47.9,44.6,30.02,North,0,0.0,0.0,88,0.00,,,0.00,WUHU216HW,2013-10-02 08:55:00,
2013-10-02 04:00:00,47.2,43.8,30.02,North,0,0.0,0.0,88,0.00,,,0.00,WUHU216HW,2013-10-02 09:00:00,
2013-10-02 04:05:00,46.8,43.5,30.02,North,0,0.0,0.0,88,0.00,,,0.00,WUHU216HW,2013-10-02 09:05:00,
2013-10-02 04:10:00,46.8,43.5,30.02,North,0,0.0,0.0,88,0.00,,,0.00,WUHU216HW,2013-10-02 09:10:00,
2013-10-02 04:15:00,46.6,43.3,30.02,North,0,0.0,0.0,88,0.00,,,0.00,WUHU216HW,2013-10-02 09:15:00,
2013-10-02 04:20:00,46.4,43.1,30.02,North,0,0.0,0.0,88,0.00,,,0.00,WUHU216HW,2013-10-02 09:20:00,
2013-10-02 04:25:00,46.3,42.9,30.03,North,0,0.0,0.0,88,0.00,,,0.00,WUHU216HW,2013-10-02 09:25:00,
2013-10-02 04:30:00,46.1,42.8,30.03,North,0,0.0,0.0,88,0.00,,,0.00,WUHU216HW,2013-10-02 09:30:00,
2013-10-02 04:35:00,45.7,42.4,30.03,North,0,0.0,0.0,88,0.00,,,0.00,WUHU216HW,2013-10-02 09:35:00,
2013-10-02 04:40:00,45.5,42.2,30.03,North,0,0.0,0.0,88,0.00,,,0.00,WUHU216HW,2013-10-02 09:40:00,
2013-10-02 04:45:00,45.5,42.2,30.03,North,0,0.0,0.0,88,0.00,,,0.00,WUHU216HW,2013-10-02 09:45:00,
2013-10-02 04:50:00,45.4,42.0,30.04,North,0,0.0,0.0,88,0.00,,,0.00,WUHU216HW,2013-10-02 09:50:00,
2013-10-02 04:55:00,45.0,41.7,30.04,North,0,0.0,0.0,88,0.00,,,0.00,WUHU216HW,2013-10-02 09:55:00,
2013-10-02 05:00:00,44.8,41.5,30.04,North,0,0.0,0.0,88,0.00,,,0.00,WUHU216HW,2013-10-02 10:00:00,
2013-10-02 05:05:00,44.6,41.3,30.04,North,0,0.0,0.0,88,0.00,,,0.00,WUHU216HW,2013-10-02 10:05:00,
2013-10-02 05:10:00,44.5,41.1,30.04,North,0,0.0,0.0,88,0.00,,,0.00,WUHU216HW,2013-10-02 10:10:00,
2013-10-02 05:15:00,44.6,41.3,30.04,North,0,0.0,0.0,88,0.00,,,0.00,WUHU216HW,2013-10-02 10:15:00,
2013-10-02 05:20:00,44.6,41.3,30.04,North,0,0.0,0.0,88,0.00,,,0.00,WUHU216HW,2013-10-02 10:20:00,
2013-10-02 05:25:00,44.6,41.3,30.04,North,0,0.0,0.0,88,0.00,,,0.00,WUHU216HW,2013-10-02 10:25:00,
2013-10-02 05:30:00,44.5,41.5,30.05,North,0,0.0,0.0,89,0.00,,,0.00,WUHU216HW,2013-10-02 10:30:00,
2013-10-02 05:35:00,44.3,41.0,30.05,North,0,0.0,0.0,88,0.00,,,0.00,WUHU216HW,2013-10-02 10:35:00,
2013-10-02 05:40:00,44.1,40.8,30.05,North,0,0.0,0.0,88,0.00,,,0.00,WUHU216HW,2013-10-02 10:40:00,
2013-10-02 05:45:00,43.9,41.0,30.05,North,0,0.0,0.0,89,0.00,,,0.00,WUHU216HW,2013-10-02 10:45:00,
2013-10-02 05:50:00,43.9,40.6,30.05,North,0,0.0,0.0,88,0.00,,,0.00,WUHU216HW,2013-10-02 10:50:00,
2013-10-02 05:55:00,43.7,40.8,30.05,North,0,0.0,0.0,89,0.00,,,0.00,WUHU216HW,2013-10-02 10:55:00,
2013-10-02 06:00:00,43.6,40.2,30.05,North,0,0.0,0.0,88,0.00,,,0.00,WUHU216HW,2013-10-02 11:00:00,
2013-10-02 06:05:00,43.6,40.2,30.06,North,0,0.0,0.0,88,0.00,,,0.00,WUHU216HW,2013-10-02 11:05:00,
2013-10-02 06:10:00,43.6,40.2,30.06,North,0,0.0,0.0,88,0.00,,,0.00,WUHU216HW,2013-10-02 11:10:00,
2013-10-02 06:15:00,44.3,41.0,30.06,North,0,0.0,0.0,88,0.00,,,0.00,WUHU216HW,2013-10-02 11:15:00,
2013-10-02 06:20:00,44.3,41.3,30.06,North,0,0.0,0.0,89,0.00,,,0.00,WUHU216HW,2013-10-02 11:20:00,
2013-10-02 06:25:00,43.7,40.8,30.06,North,0,0.0,0.0,89,0.00,,,0.00,WUHU216HW,2013-10-02 11:25:00,
2013-10-02 06:30:00,43.7,40.8,30.06,North,0,0.0,0.0,89,0.00,,,0.00,WUHU216HW,2013-10-02 11:30:00,
2013-10-02 06:35:00,43.7,40.8,30.06,North,0,0.0,0.0,89,0.00,,,0.00,WUHU216HW,2013-10-02 11:35:00,
2013-10-02 06:40:00,43.9,41.0,30.06,North,0,0.0,0.0,89,0.00,,,0.00,WUHU216HW,2013-10-02 11:40:00,
2013-10-02 06:45:00,44.1,41.1,30.06,North,0,0.0,0.0,89,0.00,,,0.00,WUHU216HW,2013-10-02 11:45:00,
2013-10-02 06:50:00,44.1,41.1,30.07,North,0,0.0,0.0,89,0.00,,,0.00,WUHU216HW,2013-10-02 11:50:00,
2013-10-02 06:55:00,44.1,41.1,30.06,North,0,0.0,0.0,89,0.00,,,0.00,WUHU216HW,2013-10-02 11:55:00,
2013-10-02 07:00:00,43.7,40.8,30.07,North,0,0.0,0.0,89,0.00,,,0.00,WUHU216HW,2013-10-02 12:00:00,
2013-10-02 07:05:00,43.6,40.6,30.07,North,0,0.0,0.0,89,0.00,,,0.00,WUHU216HW,2013-10-02 12:05:00,
2013-10-02 07:10:00,43.6,40.6,30.07,North,0,0.0,0.0,89,0.00,,,0.00,WUHU216HW,2013-10-02 12:10:00,
2013-10-02 07:15:00,43.7,40.8,30.07,North,0,0.0,0.0,89,0.00,,,0.00,WUHU216HW,2013-10-02 12:15:00,
2013-10-02 07:20:00,43.7,40.8,30.07,North,0,0.0,0.0,89,0.00,,,0.00,WUHU216HW,2013-10-02 12:20:00,
2013-10-02 07:25:00,43.9,41.0,30.07,North,0,0.0,0.0,89,0.00,,,0.00,WUHU216HW,2013-10-02 12:25:00,
2013-10-02 07:30:00,44.1,41.1,30.07,North,0,0.0,0.0,89,0.00,,,0.00,WUHU216HW,2013-10-02 12:30:00,
2013-10-02 07:35:00,44.3,41.3,30.07,North,0,0.0,0.0,89,0.00,,,0.00,WUHU216HW,2013-10-02 12:35:00,
2013-10-02 07:40:00,44.6,41.9,30.07,North,0,0.0,0.0,90,0.00,,,0.00,WUHU216HW,2013-10-02 12:40:00,
2013-10-02 07:45:00,45.2,42.5,30.07,North,0,0.0,0.0,90,0.00,,,0.00,WUHU216HW,2013-10-02 12:45:00,
2013-10-02 07:50:00,45.7,43.0,30.07,North,0,0.0,0.0,90,0.00,,,0.00,WUHU216HW,2013-10-02 12:50:00,
2013-10-02 07:55:00,46.1,43.4,30.08,North,0,0.0,0.0,90,0.00,,,0.00,WUHU216HW,2013-10-02 12:55:00,
2013-10-02 08:00:00,46.6,44.2,30.08,North,0,0.0,0.0,91,0.00,,,0.00,WUHU216HW,2013-10-02 13:00:00,
2013-10-02 08:05:00,47.0,44.6,30.08,North,0,0.0,0.0,91,0.00,,,0.00,WUHU216HW,2013-10-02 13:05:00,
2013-10-02 08:10:00,47.5,45.1,30.08,North,0,0.0,0.0,91,0.00,,,0.00,WUHU216HW,2013-10-02 13:10:00,
2013-10-02 08:15:00,47.5,45.1,30.08,North,0,0.0,0.0,91,0.00,,,0.00,WUHU216HW,2013-10-02 13:15:00,
2013-10-02 09:00:00,52.6,49.7,30.10,North,0,0.0,0.0,90,0.00,,,0.00,WUHU216HW,2013-10-02 14:00:00,
2013-10-02 09:05:00,53.3,50.4,30.10,North,0,0.0,0.0,90,0.00,,,0.00,WUHU216HW,2013-10-02 14:05:00,
2013-10-02 09:10:00,53.6,50.8,30.10,North,0,0.0,0.0,90,0.00,,,0.00,WUHU216HW,2013-10-02 14:10:00,
2013-10-02 09:11:00,54.0,51.1,30.10,North,0,0.0,0.0,90,0.00,,,0.00,WUHU216HW,2013-10-02 14:11:00,
2013-10-02 09:15:00,54.0,51.1,30.10,North,0,0.0,0.0,90,0.00,,,0.00,WUHU216HW,2013-10-02 14:15:00,
2013-10-02 09:20:00,54.0,51.1,30.10,North,0,0.0,0.0,90,0.00,,,0.00,WUHU216HW,2013-10-02 14:20:00,
2013-10-02 11:00:00,68.9,47.8,30.10,North,0,0.0,0.0,47,0.00,,,0.00,WUHU216HW,2013-10-02 16:00:00,
2013-10-02 11:05:00,69.5,48.3,30.10,North,0,0.0,0.0,47,0.00,,,0.00,WUHU216HW,2013-10-02 16:05:00,
2013-10-02 11:10:00,70.2,46.5,30.10,North,0,0.0,0.0,43,0.00,,,0.00,WUHU216HW,2013-10-02 16:10:00,
2013-10-02 11:15:00,70.0,45.8,30.09,North,0,0.0,0.0,42,0.00,,,0.00,WUHU216HW,2013-10-02 16:15:00,
2013-10-02 11:20:00,70.2,46.5,30.09,North,0,0.0,0.0,43,0.00,,,0.00,WUHU216HW,2013-10-02 16:20:00,
2013-10-02 11:25:00,70.6,47.5,30.09,North,0,0.0,0.0,44,0.00,,,0.00,WUHU216HW,2013-10-02 16:25:00,
2013-10-02 11:30:00,71.1,44.8,30.09,North,0,0.0,0.0,39,0.00,,,0.00,WUHU216HW,2013-10-02 16:30:00,
2013-10-02 11:35:00,71.3,45.7,30.09,North,0,0.0,0.0,40,0.00,,,0.00,WUHU216HW,2013-10-02 16:35:00,
2013-10-02 11:40:00,71.6,43.8,30.09,North,0,0.0,0.0,37,0.00,,,0.00,WUHU216HW,2013-10-02 16:40:00,
2013-10-02 11:45:00,71.6,44.7,30.09,North,0,0.0,0.0,38,0.00,,,0.00,WUHU216HW,2013-10-02 16:45:00,
2013-10-02 11:50:00,72.0,45.6,30.09,North,0,0.0,0.0,39,0.00,,,0.00,WUHU216HW,2013-10-02 16:50:00,
2013-10-02 11:55:00,72.9,46.4,30.09,North,0,0.0,0.0,39,0.00,,,0.00,WUHU216HW,2013-10-02 16:55:00,
2013-10-02 12:00:00,73.4,46.2,30.09,North,0,0.0,0.0,38,0.00,,,0.00,WUHU216HW,2013-10-02 17:00:00,
2013-10-02 12:05:00,73.6,44.1,30.09,North,0,0.0,0.0,35,0.00,,,0.00,WUHU216HW,2013-10-02 17:05:00,
2013-10-02 12:10:00,73.8,43.5,30.08,North,0,0.0,0.0,34,0.00,,,0.00,WUHU216HW,2013-10-02 17:10:00,
2013-10-02 12:15:00,74.3,43.2,30.08,North,0,0.0,0.0,33,0.00,,,0.00,WUHU216HW,2013-10-02 17:15:00,
2013-10-02 12:20:00,74.3,44.7,30.08,North,0,0.0,0.0,35,0.00,,,0.00,WUHU216HW,2013-10-02 17:20:00,
2013-10-02 12:25:00,74.5,43.4,30.08,North,0,0.0,0.0,33,0.00,,,0.00,WUHU216HW,2013-10-02 17:25:00,
2013-10-02 12:30:00,75.4,44.9,30.08,North,0,0.0,0.0,34,0.00,,,0.00,WUHU216HW,2013-10-02 17:30:00,
2013-10-02 12:35:00,75.6,45.1,30.07,North,0,0.0,0.0,34,0.00,,,0.00,WUHU216HW,2013-10-02 17:35:00,
2013-10-02 12:40:00,75.6,44.4,30.08,North,0,0.0,0.0,33,0.00,,,0.00,WUHU216HW,2013-10-02 17:40:00,
2013-10-02 12:45:00,76.0,45.5,30.07,North,0,0.0,0.0,34,0.00,,,0.00,WUHU216HW,2013-10-02 17:45:00,
2013-10-02 12:50:00,76.5,45.2,30.07,North,0,0.0,0.0,33,0.00,,,0.00,WUHU216HW,2013-10-02 17:50:00,
2013-10-02 12:55:00,77.0,46.5,30.07,North,0,0.0,0.0,34,0.00,,,0.00,WUHU216HW,2013-10-02 17:55:00,
2013-10-02 13:00:00,78.3,44.4,30.07,North,0,0.0,0.0,30,0.00,,,0.00,WUHU216HW,2013-10-02 18:00:00,
2013-10-02 13:05:00,79.2,46.7,30.06,North,0,0.0,0.0,32,0.00,,,0.00,WUHU216HW,2013-10-02 18:05:00,
2013-10-02 13:10:00,79.7,47.2,30.06,North,0,0.0,0.0,32,0.00,,,0.00,WUHU216HW,2013-10-02 18:10:00,
2013-10-02 13:15:00,79.4,44.3,30.06,North,0,0.0,0.0,29,0.00,,,0.00,WUHU216HW,2013-10-02 18:15:00,
2013-10-02 13:20:00,79.7,44.6,30.06,North,0,0.0,0.0,29,0.00,,,0.00,WUHU216HW,2013-10-02 18:20:00,
2013-10-02 13:25:00,79.6,45.5,30.06,North,0,0.0,0.0,30,0.00,,,0.00,WUHU216HW,2013-10-02 18:25:00,
2013-10-02 13:30:00,80.6,45.4,30.05,North,0,0.0,0.0,29,0.00,,,0.00,WUHU216HW,2013-10-02 18:30:00,
2013-10-02 13:35:00,81.4,46.0,30.05,North,0,0.0,0.0,29,0.00,,,0.00,WUHU216HW,2013-10-02 18:35:00,
2013-10-02 13:40:00,81.4,42.8,30.05,North,0,0.0,0.0,26,0.00,,,0.00,WUHU216HW,2013-10-02 18:40:00,
2013-10-02 13:45:00,81.9,45.4,30.04,North,0,0.0,0.0,28,0.00,,,0.00,WUHU216HW,2013-10-02 18:45:00,
2013-10-02 13:50:00,83.3,47.6,30.04,North,0,0.0,0.0,29,0.00,,,0.00,WUHU216HW,2013-10-02 18:50:00,
2013-10-02 13:55:00,85.0,49.1,30.04,North,0,0.0,0.0,29,0.00,,,0.00,WUHU216HW,2013-10-02 18:55:00,
2013-10-02 14:00:00,85.3,48.3,30.04,North,0,0.0,0.0,28,0.00,,,0.00,WUHU216HW,2013-10-02 19:00:00,
2013-10-02 14:05:00,86.4,50.3,30.04,North,0,0.0,0.0,29,0.00,,,0.00,WUHU216HW,2013-10-02 19:05:00,
2013-10-02 14:10:00,85.5,46.4,30.04,North,0,0.0,0.0,26,0.00,,,0.00,WUHU216HW,2013-10-02 19:10:00,
2013-10-02 14:15:00,84.1,44.0,30.04,North,0,0.0,0.0,25,0.00,,,0.00,WUHU216HW,2013-10-02 19:15:00,
2013-10-02 14:20:00,83.3,46.6,30.03,North,0,0.0,0.0,28,0.00,,,0.00,WUHU216HW,2013-10-02 19:20:00,
2013-10-02 14:25:00,84.6,47.7,30.03,North,0,0.0,0.0,28,0.00,,,0.00,WUHU216HW,2013-10-02 19:25:00,
2013-10-02 14:30:00,84.2,48.4,30.03,North,0,0.0,0.0,29,0.00,,,0.00,WUHU216HW,2013-10-02 19:30:00,
2013-10-02 14:35:00,85.9,48.8,30.03,North,0,0.0,0.0,28,0.00,,,0.00,WUHU216HW,2013-10-02 19:35:00,
2013-10-02 14:40:00,86.8,46.4,30.02,North,0,0.0,0.0,25,0.00,,,0.00,WUHU216HW,2013-10-02 19:40:00,
2013-10-02 14:45:00,85.3,46.2,30.02,North,0,0.0,0.0,26,0.00,,,0.00,WUHU216HW,2013-10-02 19:45:00,
2013-10-02 14:50:00,86.0,43.6,30.03,North,0,0.0,0.0,23,0.00,,,0.00,WUHU216HW,2013-10-02 19:50:00,
2013-10-02 14:55:00,87.1,47.7,30.02,North,0,0.0,0.0,26,0.00,,,0.00,WUHU216HW,2013-10-02 19:55:00,
2013-10-02 15:00:00,87.7,47.1,30.02,North,0,0.0,0.0,25,0.00,,,0.00,WUHU216HW,2013-10-02 20:00:00,
2013-10-02 15:05:00,86.9,46.5,30.02,North,0,0.0,0.0,25,0.00,,,0.00,WUHU216HW,2013-10-02 20:05:00,
2013-10-02 15:10:00,84.6,44.5,30.02,North,0,0.0,0.0,25,0.00,,,0.00,WUHU216HW,2013-10-02 20:10:00,
2013-10-02 15:15:00,85.0,44.8,30.02,North,0,0.0,0.0,25,0.00,,,0.00,WUHU216HW,2013-10-02 20:15:00,
2013-10-02 15:20:00,85.1,44.9,30.02,North,0,0.0,0.0,25,0.00,,,0.00,WUHU216HW,2013-10-02 20:20:00,
2013-10-02 15:25:00,85.9,45.5,30.01,North,0,0.0,0.0,25,0.00,,,0.00,WUHU216HW,2013-10-02 20:25:00,
2013-10-02 15:30:00,86.4,46.0,30.01,North,0,0.0,0.0,25,0.00,,,0.00,WUHU216HW,2013-10-02 20:30:00,
2013-10-02 15:35:00,87.5,48.0,30.01,North,0,0.0,0.0,26,0.00,,,0.00,WUHU216HW,2013-10-02 20:35:00,
2013-10-02 15:40:00,89.3,48.5,30.01,North,0,0.0,0.0,25,0.00,,,0.00,WUHU216HW,2013-10-02 20:40:00,
2013-10-02 15:45:00,89.3,48.5,30.01,North,0,0.0,0.0,25,0.00,,,0.00,WUHU216HW,2013-10-02 20:45:00,
2013-10-02 15:50:00,90.4,49.4,30.01,North,0,0.0,0.0,25,0.00,,,0.00,WUHU216HW,2013-10-02 20:50:00,
2013-10-02 15:55:00,90.7,47.5,30.01,North,0,0.0,0.0,23,0.00,,,0.00,WUHU216HW,2013-10-02 20:55:00,
2013-10-02 16:00:00,89.3,45.3,30.00,North,0,0.0,0.0,22,0.00,,,0.00,WUHU216HW,2013-10-02 21:00:00,
2013-10-02 16:05:00,87.1,44.5,30.00,North,0,0.0,0.0,23,0.00,,,0.00,WUHU216HW,2013-10-02 21:05:00,
2013-10-02 16:10:00,86.4,44.9,30.00,North,0,0.0,0.0,24,0.00,,,0.00,WUHU216HW,2013-10-02 21:10:00,
2013-10-02 16:15:00,86.9,46.5,30.00,North,0,0.0,0.0,25,0.00,,,0.00,WUHU216HW,2013-10-02 21:15:00,
2013-10-02 16:20:00,88.7,48.0,30.00,North,0,0.0,0.0,25,0.00,,,0.00,WUHU216HW,2013-10-02 21:20:00,
2013-10-02 16:25:00,89.8,47.9,30.00,North,0,0.0,0.0,24,0.00,,,0.00,WUHU216HW,2013-10-02 21:25:00,
2013-10-02 16:30:00,88.9,44.9,30.00,North,0,0.0,0.0,22,0.00,,,0.00,WUHU216HW,2013-10-02 21:30:00,
2013-10-02 16:35:00,89.5,46.4,29.99,North,0,0.0,0.0,23,0.00,,,0.00,WUHU216HW,2013-10-02 21:35:00,
2013-10-02 16:40:00,88.9,44.9,29.99,North,0,0.0,0.0,22,0.00,,,0.00,WUHU216HW,2013-10-02 21:40:00,
2013-10-02 16:45:00,87.1,44.5,29.99,North,0,0.0,0.0,23,0.00,,,0.00,WUHU216HW,2013-10-02 21:45:00,
2013-10-02 16:50:00,82.8,42.9,29.99,North,0,0.0,0.0,25,0.00,,,0.00,WUHU216HW,2013-10-02 21:50:00,
2013-10-02 16:55:00,81.0,44.6,29.99,North,0,0.0,0.0,28,0.00,,,0.00,WUHU216HW,2013-10-02 21:55:00,
2013-10-02 17:00:00,79.0,42.9,29.99,North,0,0.0,0.0,28,0.00,,,0.00,WUHU216HW,2013-10-02 22:00:00,
2013-10-02 17:05:00,77.9,44.1,29.98,North,0,0.0,0.0,30,0.00,,,0.00,WUHU216HW,2013-10-02 22:05:00,
2013-10-02 17:10:00,77.4,43.7,29.98,North,0,0.0,0.0,30,0.00,,,0.00,WUHU216HW,2013-10-02 22:10:00,
2013-10-02 17:15:00,76.7,43.0,29.98,North,0,0.0,0.0,30,0.00,,,0.00,WUHU216HW,2013-10-02 22:15:00,
2013-10-02 17:20:00,76.0,43.2,29.98,North,0,0.0,0.0,31,0.00,,,0.00,WUHU216HW,2013-10-02 22:20:00,
2013-10-02 17:25:00,75.4,43.5,29.98,North,0,0.0,0.0,32,0.00,,,0.00,WUHU216HW,2013-10-02 22:25:00,
2013-10-02 17:30:00,74.9,43.8,29.98,North,0,0.0,0.0,33,0.00,,,0.00,WUHU216HW,2013-10-02 22:30:00,
2013-10-02 17:35:00,74.3,43.2,29.98,North,0,0.0,0.0,33,0.00,,,0.00,WUHU216HW,2013-10-02 22:35:00,
2013-10-02 17:40:00,74.0,43.7,29.98,North,0,0.0,0.0,34,0.00,,,0.00,WUHU216HW,2013-10-02 22:40:00,
2013-10-02 17:45:00,75.1,45.4,29.98,North,0,0.0,0.0,35,0.00,,,0.00,WUHU216HW,2013-10-02 22:45:00,
2013-10-02 17:50:00,76.9,46.3,29.98,North,0,0.0,0.0,34,0.00,,,0.00,WUHU216HW,2013-10-02 22:50:00,
2013-10-02 17:55:00,77.2,46.5,29.98,North,0,0.0,0.0,34,0.00,,,0.00,WUHU216HW,2013-10-02 22:55:00,
2013-10-02 18:00:00,77.2,46.5,29.98,North,0,0.0,0.0,34,0.00,,,0.00,WUHU216HW,2013-10-02 23:00:00,
2013-10-02 18:04:00,76.3,45.7,29.98,North,0,0.0,0.0,34,0.00,,,0.00,WUHU216HW,2013-10-02 23:04:00,
2013-10-02 18:09:00,74.0,44.4,29.97,North,0,0.0,0.0,35,0.00,,,0.00,WUHU216HW,2013-10-02 23:09:00,
2013-10-02 18:14:00,72.2,44.4,29.98,North,0,0.0,0.0,37,0.00,,,0.00,WUHU216HW,2013-10-02 23:14:00,
2013-10-02 18:19:00,70.7,43.0,29.98,North,0,0.0,0.0,37,0.00,,,0.00,WUHU216HW,2013-10-02 23:19:00,
2013-10-02 18:24:00,69.5,42.7,29.97,North,0,0.0,0.0,38,0.00,,,0.00,WUHU216HW,2013-10-02 23:24:00,
2013-10-02 18:29:00,68.6,42.6,29.98,North,0,0.0,0.0,39,0.00,,,0.00,WUHU216HW,2013-10-02 23:29:00,
2013-10-02 18:34:00,67.3,42.8,29.98,North,0,0.0,0.0,41,0.00,,,0.00,WUHU216HW,2013-10-02 23:34:00,
2013-10-02 18:39:00,66.1,44.0,29.98,North,0,0.0,0.0,45,0.00,,,0.00,WUHU216HW,2013-10-02 23:39:00,
2013-10-02 18:44:00,64.8,44.0,29.98,North,0,0.0,0.0,47,0.00,,,0.00,WUHU216HW,2013-10-02 23:44:00,
2013-10-02 18:49:00,64.1,43.9,29.98,North,0,0.0,0.0,48,0.00,,,0.00,WUHU216HW,2013-10-02 23:49:00,
2013-10-02 18:54:00,63.2,43.7,29.98,North,0,0.0,0.0,49,0.00,,,0.00,WUHU216HW,2013-10-02 23:54:00,
2013-10-02 18:59:00,62.6,43.7,29.98,North,0,0.0,0.0,50,0.00,,,0.00,WUHU216HW,2013-10-02 23:59:00,
2013-10-02 19:04:00,62.1,43.7,29.98,North,0,0.0,0.0,51,0.00,,,0.00,WUHU216HW,2013-10-03 00:04:00,
2013-10-02 19:09:00,61.6,43.3,29.98,North,0,0.0,0.0,51,0.00,,,0.00,WUHU216HW,2013-10-03 00:09:00,
2013-10-02 19:14:00,61.2,43.4,29.98,North,0,0.0,0.0,52,0.00,,,0.00,WUHU216HW,2013-10-03 00:14:00,
2013-10-02 19:19:00,60.8,43.6,29.98,North,0,0.0,0.0,53,0.00,,,0.00,WUHU216HW,2013-10-03 00:19:00,
2013-10-02 19:24:00,60.8,44.1,29.98,North,0,0.0,0.0,54,0.00,,,0.00,WUHU216HW,2013-10-03 00:24:00,
2013-10-02 19:29:00,60.3,44.0,29.98,North,0,0.0,0.0,55,0.00,,,0.00,WUHU216HW,2013-10-03 00:29:00,
2013-10-02 19:34:00,59.8,44.0,29.98,North,0,0.0,0.0,56,0.00,,,0.00,WUHU216HW,2013-10-03 00:34:00,
2013-10-02 19:39:00,59.4,44.1,29.98,North,0,0.0,0.0,57,0.00,,,0.00,WUHU216HW,2013-10-03 00:39:00,
2013-10-02 19:44:00,59.2,44.5,29.98,North,0,0.0,0.0,58,0.00,,,0.00,WUHU216HW,2013-10-03 00:44:00,
2013-10-02 19:49:00,58.9,44.1,29.98,North,0,0.0,0.0,58,0.00,,,0.00,WUHU216HW,2013-10-03 00:49:00,
2013-10-02 19:54:00,58.5,43.3,29.98,North,0,0.0,0.0,57,0.00,,,0.00,WUHU216HW,2013-10-03 00:54:00,
2013-10-02 19:59:00,58.0,42.9,29.98,North,0,0.0,0.0,57,0.00,,,0.00,WUHU216HW,2013-10-03 00:59:00,
2013-10-02 20:04:00,58.0,43.3,29.98,North,0,0.0,0.0,58,0.00,,,0.00,WUHU216HW,2013-10-03 01:04:00,
2013-10-02 20:09:00,57.8,43.1,29.98,North,0,0.0,0.0,58,0.00,,,0.00,WUHU216HW,2013-10-03 01:09:00,
2013-10-02 20:14:00,57.8,44.0,29.98,North,0,0.0,0.0,60,0.00,,,0.00,WUHU216HW,2013-10-03 01:14:00,
2013-10-02 20:19:00,57.6,44.6,29.98,North,0,0.0,0.0,62,0.00,,,0.00,WUHU216HW,2013-10-03 01:19:00,
2013-10-02 20:23:00,58.0,44.7,29.98,North,0,0.0,0.0,61,0.00,,,0.00,WUHU216HW,2013-10-03 01:23:00,
2013-10-02 20:28:00,58.5,44.7,29.98,North,0,0.0,0.0,60,0.00,,,0.00,WUHU216HW,2013-10-03 01:28:00,
2013-10-02 20:33:00,59.2,45.8,29.98,North,0,0.0,0.0,61,0.00,,,0.00,WUHU216HW,2013-10-03 01:33:00,
2013-10-02 20:38:00,60.1,45.8,29.98,North,0,0.0,0.0,59,0.00,,,0.00,WUHU216HW,2013-10-03 01:38:00,
2013-10-02 20:43:00,60.8,46.0,29.98,North,0,0.0,0.0,58,0.00,,,0.00,WUHU216HW,2013-10-03 01:43:00,
2013-10-02 20:48:00,61.0,46.2,29.98,North,0,0.0,0.0,58,0.00,,,0.00,WUHU216HW,2013-10-03 01:48:00,
2013-10-02 20:53:00,61.2,46.4,29.98,North,0,0.0,0.0,58,0.00,,,0.00,WUHU216HW,2013-10-03 01:53:00,
2013-10-02 20:58:00,61.4,46.0,29.98,North,0,0.0,0.0,57,0.00,,,0.00,WUHU216HW,2013-10-03 01:58:00,
2013-10-02 21:03:00,61.6,46.2,29.98,North,0,0.0,0.0,57,0.00,,,0.00,WUHU216HW,2013-10-03 02:03:00,
2013-10-02 21:05:00,61.4,46.5,29.98,North,0,0.0,0.0,58,0.00,,,0.00,WUHU216HW,2013-10-03 02:05:00,
2013-10-02 21:10:00,61.4,46.5,29.98,North,0,0.0,0.0,58,0.00,,,0.00,WUHU216HW,2013-10-03 02:10:00,
2013-10-02 21:15:00,61.2,46.4,29.98,North,0,0.0,0.0,58,0.00,,,0.00,WUHU216HW,2013-10-03 02:15:00,
2013-10-02 21:20:00,61.2,46.4,29.98,North,0,0.0,0.0,58,0.00,,,0.00,WUHU216HW,2013-10-03 02:20:00,
2013-10-02 21:25:00,61.0,46.2,29.97,North,0,0.0,0.0,58,0.00,,,0.00,WUHU216HW,2013-10-03 02:25:00,
2013-10-02 21:30:00,61.0,45.7,29.97,North,0,0.0,0.0,57,0.00,,,0.00,WUHU216HW,2013-10-03 02:30:00,
2013-10-02 21:35:00,61.0,45.7,29.98,North,0,0.0,0.0,57,0.00,,,0.00,WUHU216HW,2013-10-03 02:35:00,
2013-10-02 21:40:00,61.0,45.7,29.98,North,0,0.0,0.0,57,0.00,,,0.00,WUHU216HW,2013-10-03 02:40:00,
2013-10-02 21:45:00,60.8,45.6,29.98,North,0,0.0,0.0,57,0.00,,,0.00,WUHU216HW,2013-10-03 02:45:00,
2013-10-02 21:50:00,60.5,45.2,29.98,North,0,0.0,0.0,57,0.00,,,0.00,WUHU216HW,2013-10-03 02:50:00,
2013-10-02 21:55:00,60.5,45.2,29.98,North,0,0.0,0.0,57,0.00,,,0.00,WUHU216HW,2013-10-03 02:55:00,
2013-10-02 22:00:00,60.1,44.8,29.98,North,0,0.0,0.0,57,0.00,,,0.00,WUHU216HW,2013-10-03 03:00:00,
2013-10-02 22:05:00,59.9,44.6,29.97,North,0,0.0,0.0,57,0.00,,,0.00,WUHU216HW,2013-10-03 03:05:00,
2013-10-02 22:10:00,59.8,44.5,29.97,North,0,0.0,0.0,57,0.00,,,0.00,WUHU216HW,2013-10-03 03:10:00,
2013-10-02 22:15:00,59.8,44.9,29.97,North,0,0.0,0.0,58,0.00,,,0.00,WUHU216HW,2013-10-03 03:15:00,
2013-10-02 22:20:00,59.4,44.1,29.97,North,0,0.0,0.0,57,0.00,,,0.00,WUHU216HW,2013-10-03 03:20:00,
2013-10-02 22:25:00,59.2,43.9,29.97,North,0,0.0,0.0,57,0.00,,,0.00,WUHU216HW,2013-10-03 03:25:00,
2013-10-02 22:30:00,58.9,43.7,29.97,North,0,0.0,0.0,57,0.00,,,0.00,WUHU216HW,2013-10-03 03:30:00,
2013-10-02 22:35:00,58.7,43.5,29.97,North,0,0.0,0.0,57,0.00,,,0.00,WUHU216HW,2013-10-03 03:35:00,
2013-10-02 22:40:00,58.5,43.3,29.97,North,0,0.0,0.0,57,0.00,,,0.00,WUHU216HW,2013-10-03 03:40:00,
2013-10-02 22:45:00,58.1,42.9,29.97,North,0,0.0,0.0,57,0.00,,,0.00,WUHU216HW,2013-10-03 03:45:00,
2013-10-02 22:50:00,58.0,43.3,29.97,North,0,0.0,0.0,58,0.00,,,0.00,WUHU216HW,2013-10-03 03:50:00,
2013-10-02 22:55:00,57.8,42.7,29.97,North,0,0.0,0.0,57,0.00,,,0.00,WUHU216HW,2013-10-03 03:55:00,
2013-10-02 23:00:00,57.6,42.5,29.97,North,0,0.0,0.0,57,0.00,,,0.00,WUHU216HW,2013-10-03 04:00:00,
2013-10-02 23:01:00,57.6,42.5,29.97,North,0,0.0,0.0,57,0.00,,,0.00,WUHU216HW,2013-10-03 04:01:00,
2013-10-02 23:06:00,57.4,42.3,29.97,North,0,0.0,0.0,57,0.00,,,0.00,WUHU216HW,2013-10-03 04:06:00,
2013-10-02 23:11:00,57.2,42.1,29.97,North,0,0.0,0.0,57,0.00,,,0.00,WUHU216HW,2013-10-03 04:11:00,
2013-10-02 23:16:00,56.9,41.8,29.97,North,0,0.0,0.0,57,0.00,,,0.00,WUHU216HW,2013-10-03 04:16:00,
2013-10-02 23:21:00,56.7,42.1,29.97,North,0,0.0,0.0,58,0.00,,,0.00,WUHU216HW,2013-10-03 04:21:00,
2013-10-02 23:26:00,56.5,42.0,29.97,North,0,0.0,0.0,58,0.00,,,0.00,WUHU216HW,2013-10-03 04:26:00,
2013-10-02 23:31:00,56.5,42.4,29.97,North,0,0.0,0.0,59,0.00,,,0.00,WUHU216HW,2013-10-03 04:31:00,
2013-10-02 23:36:00,56.9,42.8,29.97,North,0,0.0,0.0,59,0.00,,,0.00,WUHU216HW,2013-10-03 04:36:00,
2013-10-02 23:41:00,57.2,42.7,29.96,North,0,0.0,0.0,58,0.00,,,0.00,WUHU216HW,2013-10-03 04:41:00,
2013-10-02 23:46:00,57.4,42.3,29.96,North,0,0.0,0.0,57,0.00,,,0.00,WUHU216HW,2013-10-03 04:46:00,
2013-10-02 23:51:00,57.4,42.3,29.96,North,0,0.0,0.0,57,0.00,,,0.00,WUHU216HW,2013-10-03 04:51:00,
2013-10-02 23:56:00,57.4,42.3,29.96,North,0,0.0,0.0,57,0.00,,,0.00,WUHU216HW,2013-10-03 04:56:00,